createdAt,value
2023-01-10T00:01:42.769Z,7.30
2023-01-10T00:04:10.619Z,7.20
2023-01-10T00:06:38.491Z,7.20
2023-01-10T00:09:06.444Z,7.20
2023-01-10T00:11:52.981Z,7.20
2023-01-10T00:14:20.931Z,7.20
2023-01-10T00:16:48.798Z,7.10
2023-01-10T00:19:16.708Z,7.10
2023-01-10T00:21:44.736Z,7.20
2023-01-10T00:24:19.852Z,7.20
2023-01-10T00:26:51.965Z,7.20
2023-01-10T00:29:21.867Z,7.20
2023-01-10T00:31:49.913Z,7.10
2023-01-10T00:34:18.203Z,7.20
2023-01-10T00:36:47.881Z,7.20
2023-01-10T00:39:16.603Z,7.20
2023-01-10T00:42:02.242Z,7.20
2023-01-10T00:44:31.694Z,7.20
2023-01-10T00:46:59.545Z,7.30
2023-01-10T00:49:27.394Z,7.20
2023-01-10T00:51:58.076Z,7.30
2023-01-10T00:59:46.403Z,7.30
2023-01-10T01:04:55.806Z,7.30
2023-01-10T01:07:23.791Z,7.30
2023-01-10T01:10:05.667Z,7.30
2023-01-10T01:12:33.494Z,7.30
2023-01-10T01:15:02.829Z,7.30
2023-01-10T01:17:30.671Z,7.30
2023-01-10T01:19:58.561Z,7.30
2023-01-10T01:22:26.433Z,7.30
2023-01-10T01:24:54.366Z,7.30
2023-01-10T01:27:22.252Z,7.30
2023-01-10T01:29:50.068Z,7.30
2023-01-10T01:32:21.057Z,7.30
2023-01-10T01:34:48.949Z,7.30
2023-01-10T01:37:19.530Z,7.30
2023-01-10T01:39:47.564Z,7.30
2023-01-10T01:42:23.256Z,7.30
2023-01-10T01:45:30.939Z,7.20
2023-01-10T01:48:07.657Z,7.30
2023-01-10T01:50:40.390Z,7.20
2023-01-10T01:53:12.794Z,7.20
2023-01-10T01:55:41.618Z,7.20
2023-01-10T01:58:14.841Z,7.20
2023-01-10T02:00:42.839Z,7.30
2023-01-10T02:03:14.639Z,7.20
2023-01-10T02:05:45.281Z,7.30
2023-01-10T02:08:14.433Z,7.20
2023-01-10T02:10:48.817Z,7.20
2023-01-10T02:13:19.277Z,7.20
2023-01-10T02:15:47.304Z,7.20
2023-01-10T02:18:16.771Z,7.30
2023-01-10T02:21:07.982Z,7.30
2023-01-10T02:24:11.523Z,7.30
2023-01-10T02:27:16.044Z,7.30
2023-01-10T02:30:35.696Z,7.30
2023-01-10T02:33:11.597Z,7.30
2023-01-10T02:35:51.911Z,7.30
2023-01-10T02:38:31.642Z,7.30
2023-01-10T02:41:10.512Z,7.30
2023-01-10T02:43:43.357Z,7.30
2023-01-10T02:46:16.452Z,7.30
2023-01-10T02:48:46.747Z,7.20
2023-01-10T02:51:19.981Z,7.20
2023-01-10T02:53:51.487Z,7.20
2023-01-10T02:57:01.648Z,7.20
2023-01-10T02:59:50.953Z,7.20
2023-01-10T03:02:31.419Z,7.20
2023-01-10T03:05:08.448Z,7.10
2023-01-10T03:07:41.826Z,7.10
2023-01-10T03:10:15.605Z,7.10
2023-01-10T03:12:48.069Z,7.10
2023-01-10T03:15:20.313Z,7.00
2023-01-10T03:17:53.177Z,7.00
2023-01-10T03:20:24.321Z,7.10
2023-01-10T03:22:53.668Z,7.00
2023-01-10T03:25:25.668Z,7.00
2023-01-10T03:28:01.532Z,7.00
2023-01-10T03:30:36.297Z,7.00
2023-01-10T03:33:05.813Z,7.00
2023-01-10T03:35:53.648Z,7.00
2023-01-10T03:38:32.645Z,6.90
2023-01-10T03:41:06.922Z,7.00
2023-01-10T03:43:59.735Z,7.00
2023-01-10T03:46:31.883Z,7.00
2023-01-10T03:49:01.395Z,6.90
2023-01-10T03:51:31.213Z,6.90
2023-01-10T03:54:01.520Z,6.90
2023-01-10T03:56:29.495Z,6.90
2023-01-10T03:58:57.592Z,6.90
2023-01-10T04:01:25.539Z,6.90
2023-01-10T04:03:53.486Z,6.90
2023-01-10T04:06:21.355Z,6.90
2023-01-10T04:08:50.579Z,6.90
2023-01-10T04:11:18.436Z,6.90
2023-01-10T04:13:46.271Z,6.90
2023-01-10T04:16:14.136Z,6.90
2023-01-10T04:18:41.955Z,6.90
2023-01-10T04:21:09.975Z,6.90
2023-01-10T04:23:37.833Z,6.90
2023-01-10T04:26:07.181Z,6.90
2023-01-10T04:28:37.803Z,6.90
2023-01-10T04:31:05.981Z,6.90
2023-01-10T04:33:33.947Z,6.90
2023-01-10T04:36:01.854Z,6.90
2023-01-10T04:38:29.694Z,6.90
2023-01-10T04:40:58.407Z,6.90
2023-01-10T04:43:27.706Z,6.90
2023-01-10T04:45:55.575Z,6.80
2023-01-10T04:48:23.486Z,6.80
2023-01-10T04:50:51.765Z,6.80
2023-01-10T04:53:20.290Z,6.80
2023-01-10T04:55:48.606Z,6.80
2023-01-10T04:58:16.653Z,6.80
2023-01-10T05:00:46.019Z,6.80
2023-01-10T05:03:14.028Z,6.80
2023-01-10T05:05:42.002Z,6.70
2023-01-10T05:08:09.838Z,6.70
2023-01-10T05:10:37.722Z,6.80
2023-01-10T05:13:05.648Z,6.70
2023-01-10T05:15:33.505Z,6.70
2023-01-10T05:18:02.741Z,6.80
2023-01-10T05:20:30.688Z,6.80
2023-01-10T05:23:01.692Z,6.80
2023-01-10T05:25:29.574Z,6.80
2023-01-10T05:27:57.443Z,6.80
2023-01-10T05:30:26.664Z,6.80
2023-01-10T05:32:54.572Z,6.80
2023-01-10T05:35:23.823Z,6.80
2023-01-10T05:37:53.023Z,6.80
2023-01-10T05:40:23.926Z,6.80
2023-01-10T05:42:51.815Z,6.70
2023-01-10T05:45:19.712Z,6.80
2023-01-10T05:47:47.586Z,6.80
2023-01-10T05:50:19.068Z,6.80
2023-01-10T05:52:48.361Z,6.80
2023-01-10T05:55:16.416Z,6.80
2023-01-10T05:57:44.297Z,6.80
2023-01-10T06:00:16.553Z,6.80
2023-01-10T06:02:44.517Z,6.80
2023-01-10T06:05:12.470Z,6.80
2023-01-10T06:07:40.491Z,6.80
2023-01-10T06:10:11.395Z,6.80
2023-01-10T06:12:40.405Z,6.80
2023-01-10T06:15:09.318Z,6.70
2023-01-10T06:17:37.175Z,6.80
2023-01-10T06:20:05.668Z,6.70
2023-01-10T06:22:33.555Z,6.70
2023-01-10T06:25:02.534Z,6.70
2023-01-10T06:27:31.907Z,6.70
2023-01-10T06:30:01.374Z,6.70
2023-01-10T06:32:29.513Z,6.70
2023-01-10T06:34:57.460Z,6.70
2023-01-10T06:37:25.320Z,6.70
2023-01-10T06:39:53.320Z,6.70
2023-01-10T06:42:23.436Z,6.70
2023-01-10T06:44:52.656Z,6.70
2023-01-10T06:47:20.574Z,6.70
2023-01-10T06:49:48.514Z,6.70
2023-01-10T06:52:22.431Z,6.80
2023-01-10T06:54:53.026Z,6.70
2023-01-10T06:57:23.881Z,6.70
2023-01-10T06:59:53.147Z,6.70
2023-01-10T07:02:21.368Z,6.70
2023-01-10T07:04:49.688Z,6.70
2023-01-10T07:07:18.248Z,6.70
2023-01-10T07:09:47.477Z,6.70
2023-01-10T07:12:15.427Z,6.70
2023-01-10T07:14:43.344Z,6.70
2023-01-10T07:17:12.740Z,6.70
2023-01-10T07:19:40.625Z,6.70
2023-01-10T07:22:08.480Z,6.70
2023-01-10T07:24:36.302Z,6.70
2023-01-10T07:27:04.295Z,6.70
2023-01-10T07:29:32.211Z,6.70
2023-01-10T07:32:00.063Z,6.70
2023-01-10T07:34:29.368Z,6.70
2023-01-10T07:36:57.246Z,6.70
2023-01-10T07:39:25.106Z,6.70
2023-01-10T07:41:53.468Z,6.80
2023-01-10T07:44:21.408Z,6.80
2023-01-10T07:46:49.922Z,6.80
2023-01-10T07:49:18.533Z,6.80
2023-01-10T07:51:47.840Z,6.80
2023-01-10T07:54:15.815Z,6.80
2023-01-10T07:56:43.767Z,6.80
2023-01-10T07:59:11.651Z,6.80
2023-01-10T08:01:39.521Z,6.90
2023-01-10T08:04:07.392Z,6.90
2023-01-10T08:06:35.265Z,6.90
2023-01-10T08:09:05.863Z,6.90
2023-01-10T08:11:33.746Z,6.90
2023-01-10T08:14:01.666Z,6.90
2023-01-10T08:16:29.627Z,6.90
2023-01-10T08:18:57.526Z,6.90
2023-01-10T08:21:25.536Z,6.90
2023-01-10T08:23:57.932Z,7.00
2023-01-10T08:26:27.161Z,7.00
2023-01-10T08:28:55.050Z,7.00
2023-01-10T08:31:23.018Z,7.00
2023-01-10T08:33:50.970Z,7.00
2023-01-10T08:36:20.310Z,7.00
2023-01-10T08:38:48.269Z,7.00
2023-01-10T08:41:16.231Z,7.00
2023-01-10T08:43:45.530Z,7.10
2023-01-10T08:46:13.518Z,7.10
2023-01-10T08:48:41.601Z,7.20
2023-01-10T08:51:10.559Z,7.20
2023-01-10T08:53:42.149Z,7.20
2023-01-10T08:56:10.424Z,7.20
2023-01-10T08:58:38.430Z,7.20
2023-01-10T09:01:09.256Z,7.20
2023-01-10T09:03:37.210Z,7.20
2023-01-10T09:06:05.205Z,7.30
2023-01-10T09:08:33.585Z,7.30
2023-01-10T09:11:01.984Z,7.30
2023-01-10T09:13:30.538Z,7.30
2023-01-10T09:16:00.339Z,7.30
2023-01-10T09:18:29.744Z,7.40
2023-01-10T09:20:57.712Z,7.40
2023-01-10T09:23:25.616Z,7.40
2023-01-10T09:25:55.840Z,7.40
2023-01-10T09:28:24.936Z,7.40
2023-01-10T09:30:52.992Z,7.50
2023-01-10T09:33:21.189Z,7.50
2023-01-10T09:35:50.565Z,7.50
2023-01-10T09:38:22.296Z,7.50
2023-01-10T09:41:18.771Z,7.50
2023-01-10T09:44:01.197Z,7.50
2023-01-10T09:46:41.958Z,7.50
2023-01-10T09:49:22.331Z,7.50
2023-01-10T09:51:54.197Z,7.60
2023-01-10T09:54:27.465Z,7.60
2023-01-10T09:56:56.799Z,7.60
2023-01-10T09:59:32.426Z,7.70
2023-01-10T10:02:07.839Z,7.70
2023-01-10T10:04:38.297Z,7.70
2023-01-10T10:07:13.915Z,7.70
2023-01-10T10:09:42.019Z,7.80
2023-01-10T10:12:27.304Z,7.80
2023-01-10T10:15:09.557Z,7.80
2023-01-10T10:17:43.978Z,7.80
2023-01-10T10:20:22.167Z,7.80
2023-01-10T10:23:01.982Z,7.80
2023-01-10T10:25:46.663Z,7.80
2023-01-10T10:28:32.105Z,8.00
2023-01-10T10:31:11.056Z,8.10
2023-01-10T10:33:58.151Z,8.30
2023-01-10T10:36:31.823Z,8.30
2023-01-10T10:39:03.955Z,8.30
2023-01-10T10:41:36.605Z,8.30
2023-01-10T10:44:23.070Z,8.20
2023-01-10T10:46:50.923Z,8.20
2023-01-10T10:49:26.461Z,8.10
2023-01-10T10:51:55.135Z,8.10
2023-01-10T10:54:24.436Z,8.20
2023-01-10T10:56:55.110Z,8.30
2023-01-10T10:59:23.276Z,8.50
2023-01-10T11:01:52.106Z,8.60
2023-01-10T11:04:23.166Z,8.60
2023-01-10T11:06:51.972Z,8.60
2023-01-10T11:09:24.841Z,8.50
2023-01-10T11:11:56.846Z,8.40
2023-01-10T11:14:46.019Z,8.30
2023-01-10T11:17:20.552Z,8.20
2023-01-10T11:20:00.639Z,8.20
2023-01-10T11:22:31.200Z,8.40
2023-01-10T11:25:04.460Z,8.50
2023-01-10T11:27:49.548Z,8.60
2023-01-10T11:30:22.267Z,8.60
2023-01-10T11:32:54.258Z,8.70
2023-01-10T11:35:25.914Z,8.80
2023-01-10T11:38:01.867Z,8.80
2023-01-10T11:40:30.884Z,8.80
2023-01-10T11:43:01.180Z,8.80
2023-01-10T11:45:33.891Z,8.80
2023-01-10T11:48:09.236Z,8.80
2023-01-10T11:50:40.787Z,8.80
2023-01-10T11:53:24.351Z,8.80
2023-01-10T11:55:52.308Z,8.70
2023-01-10T11:58:22.064Z,8.60
2023-01-10T12:00:51.053Z,8.60
2023-01-10T12:03:24.670Z,8.50
2023-01-10T12:05:54.726Z,8.50
2023-01-10T12:08:27.636Z,8.60
2023-01-10T12:11:24.889Z,8.70
2023-01-10T12:13:55.728Z,8.70
2023-01-10T12:16:26.051Z,8.70
2023-01-10T12:18:55.789Z,8.80
2023-01-10T12:21:30.508Z,8.90
2023-01-10T12:24:01.981Z,8.90
2023-01-10T12:26:32.730Z,8.90
2023-01-10T12:29:08.598Z,8.90
2023-01-10T12:31:39.361Z,8.90
2023-01-10T12:34:14.863Z,8.90
2023-01-10T12:36:50.479Z,8.80
2023-01-10T12:39:23.924Z,8.80
2023-01-10T12:42:21.103Z,8.70
2023-01-10T12:44:54.517Z,8.70
2023-01-10T12:47:30.904Z,8.60
2023-01-10T12:50:03.696Z,8.60
2023-01-10T12:52:40.903Z,8.60
2023-01-10T12:55:13.329Z,8.60
2023-01-10T12:57:43.388Z,8.60
2023-01-10T13:00:21.862Z,8.50
2023-01-10T13:02:53.808Z,8.50
2023-01-10T13:05:23.240Z,8.50
2023-01-10T13:07:55.296Z,8.50
2023-01-10T13:10:25.635Z,8.60
2023-01-10T13:12:58.388Z,8.60
2023-01-10T13:15:31.316Z,8.70
2023-01-10T13:18:04.469Z,8.70
2023-01-10T13:20:50.154Z,8.70
2023-01-10T13:23:27.188Z,8.70
2023-01-10T13:26:04.979Z,8.70
2023-01-10T13:28:35.738Z,8.70
2023-01-10T13:31:07.747Z,8.60
2023-01-10T13:33:54.337Z,8.50
2023-01-10T13:36:25.448Z,8.50
2023-01-10T13:38:55.783Z,8.40
2023-01-10T13:41:41.864Z,8.40
2023-01-10T13:44:12.783Z,8.30
2023-01-10T13:46:47.174Z,8.20
2023-01-10T13:49:43.351Z,8.20
2023-01-10T13:52:32.932Z,8.20
2023-01-10T13:55:05.023Z,8.10
2023-01-10T13:57:55.955Z,8.10
2023-01-10T14:01:12.712Z,8.10
2023-01-10T14:03:51.626Z,8.10
2023-01-10T14:06:49.194Z,8.00
2023-01-10T14:09:40.727Z,8.00
2023-01-10T14:12:18.720Z,8.00
2023-01-10T14:14:54.952Z,8.00
2023-01-10T14:17:25.905Z,8.00
2023-01-10T14:20:20.773Z,8.00
2023-01-10T14:23:05.372Z,8.00
2023-01-10T14:25:35.143Z,8.00
2023-01-10T14:28:04.004Z,8.00
2023-01-10T14:30:34.150Z,8.00
2023-01-10T14:33:08.020Z,8.10
2023-01-10T14:35:43.615Z,8.10
2023-01-10T14:38:20.120Z,8.20
2023-01-10T14:40:51.173Z,8.20
2023-01-10T14:43:23.675Z,8.20
2023-01-10T14:45:59.203Z,8.20
2023-01-10T14:48:30.593Z,8.20
2023-01-10T14:51:21.649Z,8.20
2023-01-10T14:53:57.348Z,8.30
2023-01-10T14:56:28.118Z,8.30
2023-01-10T14:58:56.066Z,8.30
2023-01-10T15:01:27.931Z,8.30
2023-01-10T15:03:56.974Z,8.30
2023-01-10T15:06:26.385Z,8.20
2023-01-10T15:08:59.572Z,8.20
2023-01-10T15:11:28.914Z,8.10
2023-01-10T15:14:03.401Z,8.10
2023-01-10T15:16:32.330Z,8.00
2023-01-10T15:19:00.450Z,8.00
2023-01-10T15:21:30.171Z,7.90
2023-01-10T15:23:58.153Z,8.00
2023-01-10T15:26:30.700Z,7.90
2023-01-10T15:29:12.205Z,7.90
2023-01-10T15:31:42.145Z,7.80
2023-01-10T15:34:18.411Z,7.80
2023-01-10T15:36:53.338Z,7.80
2023-01-10T15:39:23.917Z,7.80
2023-01-10T15:41:57.516Z,7.80
2023-01-10T15:44:39.103Z,7.70
2023-01-10T15:47:27.403Z,7.70
2023-01-10T15:49:55.390Z,7.60
2023-01-10T15:52:24.796Z,7.60
2023-01-10T15:54:52.844Z,7.60
2023-01-10T15:57:27.893Z,7.50
2023-01-10T15:59:57.184Z,7.60
2023-01-10T16:02:26.958Z,7.50
2023-01-10T16:04:57.375Z,7.50
2023-01-10T16:07:28.975Z,7.40
2023-01-10T16:09:59.249Z,7.50
2023-01-10T16:12:51.383Z,7.50
2023-01-10T16:15:21.910Z,7.40
2023-01-10T16:17:50.538Z,7.40
2023-01-10T16:20:21.109Z,7.40
2023-01-10T16:22:51.201Z,7.30
2023-01-10T16:25:21.509Z,7.30
2023-01-10T16:27:49.554Z,7.30
2023-01-10T16:30:25.276Z,7.30
2023-01-10T16:32:53.820Z,7.30
2023-01-10T16:35:22.110Z,7.20
2023-01-10T16:37:56.407Z,7.20
2023-01-10T16:40:28.392Z,7.20
2023-01-10T16:43:14.513Z,7.10
2023-01-10T16:45:42.479Z,7.10
2023-01-10T16:48:11.272Z,7.10
2023-01-10T16:50:40.934Z,7.00
2023-01-10T16:53:13.255Z,7.00
2023-01-10T16:55:45.744Z,7.00
2023-01-10T16:58:14.610Z,6.90
2023-01-10T17:00:44.863Z,6.90
2023-01-10T17:03:15.888Z,6.80
2023-01-10T17:05:44.323Z,6.80
2023-01-10T17:08:17.029Z,6.80
2023-01-10T17:10:46.848Z,6.80
2023-01-10T17:13:22.829Z,6.70
2023-01-10T17:15:51.543Z,6.70
2023-01-10T17:18:19.587Z,6.70
2023-01-10T17:20:47.491Z,6.70
2023-01-10T17:23:16.792Z,6.70
2023-01-10T17:25:47.132Z,6.60
2023-01-10T17:28:15.121Z,6.60
2023-01-10T17:30:44.417Z,6.60
2023-01-10T17:33:12.340Z,6.60
2023-01-10T17:35:41.183Z,6.60
2023-01-10T17:38:11.478Z,6.60
2023-01-10T17:40:42.323Z,6.60
2023-01-10T17:43:11.260Z,6.60
2023-01-10T17:45:40.731Z,6.60
2023-01-10T17:48:09.509Z,6.60
2023-01-10T17:50:37.770Z,6.60
2023-01-10T17:53:05.891Z,6.60
2023-01-10T17:55:34.041Z,6.60
2023-01-10T17:58:03.775Z,6.60
2023-01-10T18:00:32.186Z,6.60
2023-01-10T18:03:00.154Z,6.60
2023-01-10T18:05:28.210Z,6.60
2023-01-10T18:07:56.158Z,6.60
2023-01-10T18:10:24.099Z,6.60
2023-01-10T18:12:52.005Z,6.60
2023-01-10T18:15:21.335Z,6.60
2023-01-10T18:17:49.478Z,6.70
2023-01-10T18:20:17.883Z,6.60
2023-01-10T18:23:04.887Z,6.70
2023-01-10T18:25:33.181Z,6.60
2023-01-10T18:28:01.081Z,6.60
2023-01-10T18:30:30.349Z,6.60
2023-01-10T18:32:58.404Z,6.60
2023-01-10T18:35:27.949Z,6.60
2023-01-10T18:37:56.850Z,6.50
2023-01-10T18:40:24.733Z,6.50
2023-01-10T18:42:54.033Z,6.50
2023-01-10T18:45:22.531Z,6.50
2023-01-10T18:47:55.341Z,6.50
2023-01-10T18:50:23.287Z,6.50
2023-01-10T18:52:51.466Z,6.50
2023-01-10T18:55:19.692Z,6.60
2023-01-10T18:57:48.212Z,6.60
2023-01-10T19:00:17.331Z,6.70
2023-01-10T19:02:47.539Z,6.70
2023-01-10T19:05:17.472Z,6.70
2023-01-10T19:07:45.541Z,6.70
2023-01-10T19:10:13.646Z,6.80
2023-01-10T19:12:42.390Z,6.80
2023-01-10T19:15:11.501Z,6.90
2023-01-10T19:17:39.412Z,6.90
2023-01-10T19:20:09.102Z,6.90
2023-01-10T19:22:38.465Z,6.90
2023-01-10T19:25:07.200Z,7.00
2023-01-10T19:27:35.379Z,6.90
2023-01-10T19:30:03.363Z,6.90
2023-01-10T19:32:31.302Z,6.90
2023-01-10T19:34:59.230Z,6.90
2023-01-10T19:37:27.207Z,6.90
2023-01-10T19:39:56.457Z,6.90
2023-01-10T19:42:25.987Z,6.90
2023-01-10T19:44:54.233Z,6.90
2023-01-10T19:47:22.130Z,6.90
2023-01-10T19:49:51.137Z,6.90
2023-01-10T19:52:19.016Z,6.90
2023-01-10T19:54:48.560Z,6.90
2023-01-10T19:57:17.784Z,6.90
2023-01-10T19:59:49.080Z,6.90
2023-01-10T20:02:17.046Z,6.90
2023-01-10T20:04:45.828Z,6.90
2023-01-10T20:07:13.906Z,6.90
2023-01-10T20:09:41.785Z,6.90
2023-01-10T20:12:09.774Z,6.90
2023-01-10T20:14:39.227Z,7.00
2023-01-10T20:17:07.964Z,7.00
2023-01-10T20:19:35.952Z,7.00
2023-01-10T20:22:03.811Z,7.00
2023-01-10T20:24:31.709Z,7.10
2023-01-10T20:27:00.703Z,7.10
2023-01-10T20:29:28.801Z,7.10
2023-01-10T20:32:01.006Z,7.20
2023-01-10T20:34:29.317Z,7.10
2023-01-10T20:36:57.217Z,7.20
2023-01-10T20:39:26.584Z,7.20
2023-01-10T20:41:54.724Z,7.20
2023-01-10T20:44:22.865Z,7.20
2023-01-10T20:46:51.039Z,7.30
2023-01-10T20:49:20.772Z,7.30
2023-01-10T20:51:49.917Z,7.30
2023-01-10T20:54:17.827Z,7.30
2023-01-10T20:56:45.769Z,7.30
2023-01-10T20:59:13.735Z,7.30
2023-01-10T21:01:41.788Z,7.30
2023-01-10T21:04:09.747Z,7.30
2023-01-10T21:06:39.187Z,7.20
2023-01-10T21:09:07.638Z,7.20
2023-01-10T21:11:51.548Z,7.20
2023-01-10T21:14:23.618Z,7.20
2023-01-10T21:16:51.526Z,7.20
2023-01-10T21:19:20.456Z,7.20
2023-01-10T21:21:49.950Z,7.20
2023-01-10T21:24:18.973Z,7.20
2023-01-10T21:26:47.020Z,7.20
2023-01-10T21:29:14.911Z,7.20
2023-01-10T21:31:42.933Z,7.20
2023-01-10T21:34:11.061Z,7.20
2023-01-10T21:36:38.980Z,7.20
2023-01-10T21:39:08.213Z,7.20
2023-01-10T21:41:55.626Z,7.20
2023-01-10T21:44:26.056Z,7.20
2023-01-10T21:46:53.941Z,7.20
2023-01-10T21:49:22.271Z,7.20
2023-01-10T21:51:50.193Z,7.20
2023-01-10T21:54:19.515Z,7.20
2023-01-10T21:56:47.624Z,7.20
2023-01-10T21:59:16.963Z,7.30
2023-01-10T22:01:44.860Z,7.30
2023-01-10T22:04:16.286Z,7.30
2023-01-10T22:06:45.279Z,7.30
2023-01-10T22:09:13.307Z,7.30
2023-01-10T22:11:44.988Z,7.30
2023-01-10T22:14:15.007Z,7.30
2023-01-10T22:16:43.005Z,7.30
2023-01-10T22:19:11.410Z,7.30
2023-01-10T22:21:39.306Z,7.30
2023-01-10T22:24:07.850Z,7.30
2023-01-10T22:26:35.772Z,7.30
2023-01-10T22:29:05.415Z,7.30
2023-01-10T22:31:33.531Z,7.30
2023-01-10T22:34:01.443Z,7.30
2023-01-10T22:36:29.292Z,7.30
2023-01-10T22:38:57.296Z,7.30
2023-01-10T22:41:26.718Z,7.30
2023-01-10T22:43:55.418Z,7.30
2023-01-10T22:46:24.751Z,7.30
2023-01-10T22:48:53.193Z,7.20
2023-01-10T22:51:22.581Z,7.20
2023-01-10T22:53:51.082Z,7.20
2023-01-10T22:56:19.011Z,7.20
2023-01-10T22:58:48.730Z,7.20
2023-01-10T23:01:18.047Z,7.10
2023-01-10T23:03:47.402Z,7.10
2023-01-10T23:06:16.311Z,7.10
2023-01-10T23:08:44.778Z,7.10
2023-01-10T23:11:15.863Z,7.10
2023-01-10T23:13:44.196Z,7.00
2023-01-10T23:16:14.559Z,7.00
2023-01-10T23:18:42.568Z,7.00
2023-01-10T23:21:11.747Z,7.00
2023-01-10T23:23:39.634Z,7.00
2023-01-10T23:26:09.934Z,7.00
2023-01-10T23:28:39.976Z,7.00
2023-01-10T23:31:08.784Z,7.00
2023-01-10T23:33:36.799Z,7.00
2023-01-10T23:36:05.560Z,7.00
2023-01-10T23:38:34.877Z,7.00
2023-01-10T23:41:02.914Z,7.00
2023-01-10T23:43:30.882Z,7.10
2023-01-10T23:45:59.181Z,7.10
2023-01-10T23:48:27.213Z,7.10
2023-01-10T23:50:55.234Z,7.00
2023-01-10T23:53:23.199Z,7.00
2023-01-10T23:55:53.292Z,7.00
2023-01-10T23:58:21.604Z,7.00
